• Join FlightAware (Why Join?)
  • Login
  • US Flag 
05:40PM EST


 

Airport Tracker/Info


-or-


 

Live Flight TrackerFlight Track Log ✈ N541JD ✈ 03-Aug-2014 ✈ KEKY - KPNS

Flight Track Log - Related Links

Times and Time Zones

All times are in EDT time to prevent confusion due to time zone crossing. See the N541JD flight status page for this flight to view local times or setup timezone preferences in your user account.

Time Position Orientation Groundspeed Altitude Reporting Facility
EDT Latitude Longitude Course Direction KTS MPH feet Rate Location/Type
11:46AM 33.2800 -86.9386 184° South 108 124 2,000  Level Atlanta Center
11:48AM 33.2236 -86.9392 180° South 174 200 2,500 360 Climbing Atlanta Center
11:49AM 33.1881 -86.9406 182° South 171 197 2,900 240 Climbing Atlanta Center
11:53AM 32.9792 -86.9483 184° South 177 204 3,900 120 Climbing Atlanta Center
11:56AM 32.8200 -86.9728 184° South 175 201 4,100  Climbing Atlanta Center
11:57AM 32.7742 -86.9761 183° South 189 217 4,100 -60 Level Atlanta Center
11:58AM 32.8407 -86.9615 184° South  Level FlightAware Approximate
11:58AM 32.7197 -86.9842 187° South 171 197 4,000  Level Atlanta Center
11:59AM 32.6758 -86.9853 181° South 171 197 4,000  Level Atlanta Center
12:00PM 32.6233 -86.9908 185° South 176 203 4,000  Level Atlanta Center
12:01PM 32.5964 -86.9925 183° South 176 203 4,000  Level Atlanta Center
12:01PM 32.5711 -86.9967 188° South 176 203 4,000  Level Atlanta Center
12:02PM 32.5314 -87.0003 184° South 193 222 4,000 -60 Level Atlanta Center
12:03PM 32.4833 -87.0036 183° South 195 224 3,900 -60 Descending Atlanta Center
12:04PM 32.4801 -87.0038 183° South  Level FlightAware Approximate
12:04PM 32.4353 -87.0092 186° South 183 211 3,900  Level Atlanta Center
12:05PM 32.3869 -87.0150 186° South 183 211 4,000  Climbing Atlanta Center
12:06PM 32.3411 -87.0183 184° South 183 211 4,000  Level Atlanta Center
12:07PM 32.2867 -87.0214 183° South 177 204 4,000  Level Atlanta Center
12:08PM 32.2386 -87.0272 186° South 177 204 4,000  Level Atlanta Center
12:09PM 32.1906 -87.0306 183° South 177 204 4,000  Level Atlanta Center
12:10PM 32.1444 -87.0339 184° South 177 204 4,000  Level Atlanta Center
12:11PM 32.0964 -87.0397 186° South 177 204 4,000  Level Atlanta Center
12:12PM 32.0483 -87.0431 183° South 177 204 4,000  Level Atlanta Center
12:13PM 32.0022 -87.0486 186° South 177 204 4,000  Level Atlanta Center
12:14PM 31.9519 -87.0519 183° South 177 204 4,000  Level Atlanta Center
12:15PM 31.9058 -87.0578 186° South 177 204 4,000  Level Atlanta Center
12:16PM 31.8578 -87.0636 186° South 177 204 4,000  Level Atlanta Center
12:20PM 31.6944 -87.0797 185° South 181 208 4,000  Level Jacksonville Center
12:21PM 31.6442 -87.0825 183° South 194 223 4,000  Level Jacksonville Center
12:22PM 31.5981 -87.0878 186° South 174 200 4,000  Level Jacksonville Center
12:23PM 31.5542 -87.0931 186° South 192 221 4,000  Level Jacksonville Center
12:24PM 31.5081 -87.0983 186° South 192 221 4,000  Level Jacksonville Center
12:25PM 31.4619 -87.1033 185° South 192 221 4,000  Level Jacksonville Center
12:26PM 31.4117 -87.1061 183° South 192 221 4,000  Level Jacksonville Center
12:27PM 31.3678 -87.1114 186° South 192 221 4,000  Level Jacksonville Center
12:28PM 31.3197 -87.1142 183° South 184 212 4,000  Level Jacksonville Center
12:29PM 31.2653 -87.1189 184° South 172 198 4,000  Level Jacksonville Center
12:29PM 31.2422 -87.1203 183° South 172 198 4,000  Level Jacksonville Center
12:30PM 31.2233 -87.1219 184° South 179 206 4,000  Level Jacksonville Center
12:30PM 31.1897 -87.1278 188° South 171 197 4,000  Level Jacksonville Center
12:31PM 31.1753 -87.1247 170° South 179 206 4,000  Level Jacksonville Center
12:31PM 31.1397 -87.1303 188° South 171 197 4,000  Level Jacksonville Center
12:32PM 31.1272 -87.1297 178° South 179 206 4,000  Level Jacksonville Center
12:32PM 31.0853 -87.1350 186° South 170 196 4,000  Level Jacksonville Center
12:33PM 31.0811 -87.1347 177° South 179 206 4,000  Level Jacksonville Center
12:34PM 31.0350 -87.1378 183° South 179 206 4,000  Level Jacksonville Center
12:35PM 30.9908 -87.1431 186° South 171 197 4,000  Level Jacksonville Center
12:35PM 30.9867 -87.1428 177° South 174 200 4,000  Level Jacksonville Center
12:36PM 30.9425 -87.1578 196° South 172 198 4,000  Level Jacksonville Center
12:36PM 30.9425 -87.1553 90° East 174 200 4,000  Level Jacksonville Center
12:37PM 30.8981 -87.1728 199° South 170 196 4,000  Level Jacksonville Center
12:37PM 30.8961 -87.1725 173° South 174 200 4,000  Level Jacksonville Center
12:38PM 30.8517 -87.1875 196° South 171 197 4,000  Level Jacksonville Center
12:38PM 30.8497 -87.1875 180° South 174 200 4,000  Level Jacksonville Center
12:39PM 30.8031 -87.2022 195° South 170 196 4,000  Level Jacksonville Center
12:40PM 30.7589 -87.2172 196° South 171 197 4,000 -120 Level Jacksonville Center
12:41PM 30.7144 -87.2344 198° South 173 199 3,800 -300 Descending Jacksonville Center
12:41PM 30.6719 -87.2589 206° Southwest 184 212 3,500 -420 Descending Jacksonville Center
12:42PM 30.6311 -87.2933 216° Southwest 185 213 3,100 -480 Descending Jacksonville Center
12:44PM 30.5858 -87.3347 218° Southwest 183 211 2,600 -480 Descending Jacksonville Center
12:45PM 30.5450 -87.3642 212° Southwest 182 209 2,200 -420 Descending Jacksonville Center
12:46PM 30.5061 -87.4008 219° Southwest 181 208 1,900 -360 Descending Jacksonville Center
12:47PM 30.4644 -87.4014 181° South 176 203 1,500 -180 Descending Jacksonville Center
12:48PM 30.4514 -87.3525 107° East 151 174 1,600  Climbing Jacksonville Center
12:49PM 30.4492 -87.3019 93° East 158 182 1,600 -120 Level Jacksonville Center
12:50PM 30.4611 -87.2542 74° East 150 173 1,400 -240 Descending Jacksonville Center